sensor_id;sensor_type;location;lat;lon;timestamp;P1;durP1;ratioP1;P2;durP2;ratioP2
27383;SDS011;14851;51.166;4.760;2023-06-04T00:02:17;2.20;;;1.00;;
27383;SDS011;14851;51.166;4.760;2023-06-04T00:04:43;3.45;;;1.10;;
27383;SDS011;14851;51.166;4.760;2023-06-04T00:07:08;4.03;;;1.00;;
27383;SDS011;14851;51.166;4.760;2023-06-04T00:09:34;3.80;;;1.02;;
27383;SDS011;14851;51.166;4.760;2023-06-04T00:12:00;2.95;;;1.30;;
27383;SDS011;14851;51.166;4.760;2023-06-04T00:14:26;4.43;;;1.35;;
27383;SDS011;14851;51.166;4.760;2023-06-04T00:16:52;2.92;;;1.00;;
27383;SDS011;14851;51.166;4.760;2023-06-04T00:19:18;3.05;;;1.13;;
27383;SDS011;14851;51.166;4.760;2023-06-04T00:21:46;2.90;;;1.20;;
27383;SDS011;14851;51.166;4.760;2023-06-04T00:24:15;2.92;;;1.10;;
27383;SDS011;14851;51.166;4.760;2023-06-04T00:26:42;8.38;;;1.42;;
27383;SDS011;14851;51.166;4.760;2023-06-04T00:29:08;4.55;;;1.20;;
27383;SDS011;14851;51.166;4.760;2023-06-04T00:31:34;3.13;;;1.45;;
27383;SDS011;14851;51.166;4.760;2023-06-04T00:34:01;2.70;;;1.40;;
27383;SDS011;14851;51.166;4.760;2023-06-04T00:36:39;4.50;;;1.48;;
27383;SDS011;14851;51.166;4.760;2023-06-04T00:39:08;3.05;;;1.45;;
27383;SDS011;14851;51.166;4.760;2023-06-04T00:41:37;5.53;;;1.42;;
27383;SDS011;14851;51.166;4.760;2023-06-04T00:44:02;2.75;;;1.33;;
27383;SDS011;14851;51.166;4.760;2023-06-04T00:46:32;4.10;;;1.20;;
27383;SDS011;14851;51.166;4.760;2023-06-04T00:49:01;3.13;;;1.30;;
27383;SDS011;14851;51.166;4.760;2023-06-04T00:51:27;4.00;;;1.95;;
27383;SDS011;14851;51.166;4.760;2023-06-04T00:53:56;4.32;;;1.27;;
27383;SDS011;14851;51.166;4.760;2023-06-04T00:56:26;4.22;;;1.58;;
27383;SDS011;14851;51.166;4.760;2023-06-04T00:58:54;2.47;;;1.20;;
27383;SDS011;14851;51.166;4.760;2023-06-04T01:04:07;2.95;;;1.52;;
27383;SDS011;14851;51.166;4.760;2023-06-04T01:06:49;2.78;;;1.45;;
27383;SDS011;14851;51.166;4.760;2023-06-04T01:09:16;3.15;;;1.45;;
27383;SDS011;14851;51.166;4.760;2023-06-04T01:11:46;2.15;;;1.40;;
27383;SDS011;14851;51.166;4.760;2023-06-04T01:14:14;7.35;;;1.40;;
27383;SDS011;14851;51.166;4.760;2023-06-04T01:19:24;5.35;;;1.75;;
27383;SDS011;14851;51.166;4.760;2023-06-04T01:22:34;3.03;;;1.40;;
27383;SDS011;14851;51.166;4.760;2023-06-04T01:25:17;5.28;;;1.50;;
27383;SDS011;14851;51.166;4.760;2023-06-04T01:27:56;3.13;;;1.48;;
27383;SDS011;14851;51.166;4.760;2023-06-04T01:30:24;2.47;;;1.80;;
27383;SDS011;14851;51.166;4.760;2023-06-04T01:33:03;3.97;;;2.00;;
27383;SDS011;14851;51.166;4.760;2023-06-04T01:38:00;3.65;;;1.50;;
27383;SDS011;14851;51.166;4.760;2023-06-04T01:40:26;3.30;;;1.45;;
27383;SDS011;14851;51.166;4.760;2023-06-04T01:42:52;6.80;;;1.80;;
27383;SDS011;14851;51.166;4.760;2023-06-04T01:45:20;5.70;;;1.88;;
27383;SDS011;14851;51.166;4.760;2023-06-04T01:47:49;4.63;;;1.63;;
27383;SDS011;14851;51.166;4.760;2023-06-04T01:50:19;5.75;;;1.67;;
27383;SDS011;14851;51.166;4.760;2023-06-04T01:52:46;1.95;;;1.42;;
27383;SDS011;14851;51.166;4.760;2023-06-04T01:55:15;2.80;;;1.75;;
27383;SDS011;14851;51.166;4.760;2023-06-04T01:57:44;2.53;;;1.30;;
27383;SDS011;14851;51.166;4.760;2023-06-04T02:02:42;3.28;;;1.90;;
27383;SDS011;14851;51.166;4.760;2023-06-04T02:05:18;5.05;;;1.70;;
27383;SDS011;14851;51.166;4.760;2023-06-04T02:07:46;5.05;;;1.83;;
27383;SDS011;14851;51.166;4.760;2023-06-04T02:10:16;4.28;;;1.98;;
27383;SDS011;14851;51.166;4.760;2023-06-04T02:12:56;4.97;;;2.00;;
27383;SDS011;14851;51.166;4.760;2023-06-04T02:15:23;4.43;;;1.85;;
27383;SDS011;14851;51.166;4.760;2023-06-04T02:17:50;7.90;;;2.03;;
27383;SDS011;14851;51.166;4.760;2023-06-04T02:20:16;3.90;;;1.70;;
27383;SDS011;14851;51.166;4.760;2023-06-04T02:22:43;2.13;;;1.63;;
27383;SDS011;14851;51.166;4.760;2023-06-04T02:25:11;3.10;;;1.70;;
27383;SDS011;14851;51.166;4.760;2023-06-04T02:27:37;3.88;;;1.85;;
27383;SDS011;14851;51.166;4.760;2023-06-04T02:30:05;3.15;;;1.70;;
27383;SDS011;14851;51.166;4.760;2023-06-04T02:32:32;2.20;;;1.30;;
27383;SDS011;14851;51.166;4.760;2023-06-04T02:35:04;3.75;;;1.80;;
27383;SDS011;14851;51.166;4.760;2023-06-04T02:37:30;3.78;;;1.80;;
27383;SDS011;14851;51.166;4.760;2023-06-04T02:39:56;5.43;;;1.95;;
27383;SDS011;14851;51.166;4.760;2023-06-04T02:42:22;4.60;;;1.90;;
27383;SDS011;14851;51.166;4.760;2023-06-04T02:44:48;5.63;;;1.77;;
27383;SDS011;14851;51.166;4.760;2023-06-04T02:47:14;3.15;;;1.73;;
27383;SDS011;14851;51.166;4.760;2023-06-04T02:49:44;4.38;;;1.63;;
27383;SDS011;14851;51.166;4.760;2023-06-04T02:52:14;6.07;;;1.77;;
27383;SDS011;14851;51.166;4.760;2023-06-04T02:54:40;2.97;;;1.73;;
27383;SDS011;14851;51.166;4.760;2023-06-04T02:57:06;3.50;;;1.80;;
27383;SDS011;14851;51.166;4.760;2023-06-04T02:59:33;4.32;;;1.83;;
27383;SDS011;14851;51.166;4.760;2023-06-04T03:02:03;4.05;;;1.73;;
27383;SDS011;14851;51.166;4.760;2023-06-04T03:04:29;3.47;;;1.77;;
27383;SDS011;14851;51.166;4.760;2023-06-04T03:07:00;3.90;;;1.77;;
27383;SDS011;14851;51.166;4.760;2023-06-04T03:09:27;8.05;;;2.30;;
27383;SDS011;14851;51.166;4.760;2023-06-04T03:11:57;6.50;;;1.58;;
27383;SDS011;14851;51.166;4.760;2023-06-04T03:14:26;4.35;;;1.90;;
27383;SDS011;14851;51.166;4.760;2023-06-04T03:17:00;6.70;;;1.50;;
27383;SDS011;14851;51.166;4.760;2023-06-04T03:19:34;3.40;;;1.55;;
27383;SDS011;14851;51.166;4.760;2023-06-04T03:22:03;5.55;;;1.55;;
27383;SDS011;14851;51.166;4.760;2023-06-04T03:24:37;4.20;;;1.90;;
27383;SDS011;14851;51.166;4.760;2023-06-04T03:27:04;5.85;;;1.83;;
27383;SDS011;14851;51.166;4.760;2023-06-04T03:29:34;3.15;;;1.63;;
27383;SDS011;14851;51.166;4.760;2023-06-04T03:32:04;3.50;;;1.48;;
27383;SDS011;14851;51.166;4.760;2023-06-04T03:34:31;4.70;;;1.70;;
27383;SDS011;14851;51.166;4.760;2023-06-04T03:36:58;2.92;;;1.65;;
27383;SDS011;14851;51.166;4.760;2023-06-04T03:39:26;3.65;;;1.83;;
27383;SDS011;14851;51.166;4.760;2023-06-04T03:41:51;3.65;;;1.50;;
27383;SDS011;14851;51.166;4.760;2023-06-04T03:44:21;5.40;;;1.70;;
27383;SDS011;14851;51.166;4.760;2023-06-04T03:46:49;5.68;;;1.55;;
27383;SDS011;14851;51.166;4.760;2023-06-04T03:49:16;3.45;;;1.73;;
27383;SDS011;14851;51.166;4.760;2023-06-04T03:51:44;3.38;;;1.70;;
27383;SDS011;14851;51.166;4.760;2023-06-04T03:54:10;2.92;;;1.75;;
27383;SDS011;14851;51.166;4.760;2023-06-04T03:56:38;8.32;;;2.15;;
27383;SDS011;14851;51.166;4.760;2023-06-04T03:59:06;5.18;;;1.85;;
27383;SDS011;14851;51.166;4.760;2023-06-04T04:01:32;3.33;;;1.80;;
27383;SDS011;14851;51.166;4.760;2023-06-04T04:03:59;7.60;;;1.95;;
27383;SDS011;14851;51.166;4.760;2023-06-04T04:06:25;5.45;;;1.60;;
27383;SDS011;14851;51.166;4.760;2023-06-04T04:08:51;3.63;;;1.65;;
27383;SDS011;14851;51.166;4.760;2023-06-04T04:11:19;4.10;;;2.00;;
27383;SDS011;14851;51.166;4.760;2023-06-04T04:13:46;2.90;;;1.60;;
27383;SDS011;14851;51.166;4.760;2023-06-04T04:16:15;1.73;;;1.33;;
27383;SDS011;14851;51.166;4.760;2023-06-04T04:18:41;3.70;;;1.98;;
27383;SDS011;14851;51.166;4.760;2023-06-04T04:23:38;3.83;;;1.70;;
27383;SDS011;14851;51.166;4.760;2023-06-04T04:26:10;2.08;;;1.45;;
27383;SDS011;14851;51.166;4.760;2023-06-04T04:28:36;3.13;;;2.00;;
27383;SDS011;14851;51.166;4.760;2023-06-04T04:31:02;4.22;;;1.75;;
27383;SDS011;14851;51.166;4.760;2023-06-04T04:33:40;3.97;;;1.98;;
27383;SDS011;14851;51.166;4.760;2023-06-04T04:36:09;4.50;;;1.95;;
27383;SDS011;14851;51.166;4.760;2023-06-04T04:38:40;3.38;;;2.00;;
27383;SDS011;14851;51.166;4.760;2023-06-04T04:41:07;4.15;;;1.98;;
27383;SDS011;14851;51.166;4.760;2023-06-04T04:43:34;4.53;;;2.08;;
27383;SDS011;14851;51.166;4.760;2023-06-04T04:46:10;4.30;;;1.80;;
27383;SDS011;14851;51.166;4.760;2023-06-04T04:48:36;3.60;;;1.80;;
27383;SDS011;14851;51.166;4.760;2023-06-04T04:51:06;4.55;;;2.00;;
27383;SDS011;14851;51.166;4.760;2023-06-04T04:53:31;4.28;;;2.15;;
27383;SDS011;14851;51.166;4.760;2023-06-04T04:56:00;3.13;;;2.13;;
27383;SDS011;14851;51.166;4.760;2023-06-04T04:58:27;4.07;;;2.13;;
27383;SDS011;14851;51.166;4.760;2023-06-04T05:00:54;3.47;;;2.08;;
27383;SDS011;14851;51.166;4.760;2023-06-04T05:03:20;9.45;;;2.30;;
27383;SDS011;14851;51.166;4.760;2023-06-04T05:05:46;3.85;;;2.00;;
27383;SDS011;14851;51.166;4.760;2023-06-04T05:08:12;6.50;;;2.17;;
27383;SDS011;14851;51.166;4.760;2023-06-04T05:13:09;5.97;;;2.45;;
27383;SDS011;14851;51.166;4.760;2023-06-04T05:15:47;3.97;;;1.95;;
27383;SDS011;14851;51.166;4.760;2023-06-04T05:18:18;4.53;;;2.38;;
27383;SDS011;14851;51.166;4.760;2023-06-04T05:20:58;3.67;;;2.17;;
27383;SDS011;14851;51.166;4.760;2023-06-04T05:23:27;4.82;;;2.13;;
27383;SDS011;14851;51.166;4.760;2023-06-04T05:25:58;4.25;;;2.17;;
27383;SDS011;14851;51.166;4.760;2023-06-04T05:28:25;4.93;;;2.17;;
27383;SDS011;14851;51.166;4.760;2023-06-04T05:30:51;7.15;;;2.47;;
27383;SDS011;14851;51.166;4.760;2023-06-04T05:33:19;6.55;;;2.15;;
27383;SDS011;14851;51.166;4.760;2023-06-04T05:35:57;5.28;;;2.38;;
27383;SDS011;14851;51.166;4.760;2023-06-04T05:38:30;3.58;;;2.20;;
27383;SDS011;14851;51.166;4.760;2023-06-04T05:41:01;5.13;;;1.88;;
27383;SDS011;14851;51.166;4.760;2023-06-04T05:43:32;3.00;;;2.10;;
27383;SDS011;14851;51.166;4.760;2023-06-04T05:46:00;5.38;;;2.75;;
27383;SDS011;14851;51.166;4.760;2023-06-04T05:48:26;3.65;;;2.03;;
27383;SDS011;14851;51.166;4.760;2023-06-04T05:50:52;2.97;;;2.20;;
27383;SDS011;14851;51.166;4.760;2023-06-04T05:53:19;3.13;;;2.42;;
27383;SDS011;14851;51.166;4.760;2023-06-04T05:55:47;3.53;;;2.08;;
27383;SDS011;14851;51.166;4.760;2023-06-04T05:58:13;4.95;;;2.30;;
27383;SDS011;14851;51.166;4.760;2023-06-04T06:00:39;5.57;;;2.05;;
27383;SDS011;14851;51.166;4.760;2023-06-04T06:03:07;4.05;;;2.10;;
27383;SDS011;14851;51.166;4.760;2023-06-04T06:05:40;2.20;;;1.33;;
27383;SDS011;14851;51.166;4.760;2023-06-04T06:08:09;3.55;;;1.80;;
27383;SDS011;14851;51.166;4.760;2023-06-04T06:10:36;3.58;;;2.50;;
27383;SDS011;14851;51.166;4.760;2023-06-04T06:13:03;4.28;;;2.40;;
27383;SDS011;14851;51.166;4.760;2023-06-04T06:15:31;4.25;;;1.98;;
27383;SDS011;14851;51.166;4.760;2023-06-04T06:18:01;2.95;;;1.92;;
27383;SDS011;14851;51.166;4.760;2023-06-04T06:20:27;5.88;;;2.35;;
27383;SDS011;14851;51.166;4.760;2023-06-04T06:22:54;5.10;;;2.67;;
27383;SDS011;14851;51.166;4.760;2023-06-04T06:25:22;4.63;;;2.17;;
27383;SDS011;14851;51.166;4.760;2023-06-04T06:27:57;5.35;;;2.10;;
27383;SDS011;14851;51.166;4.760;2023-06-04T06:30:24;4.10;;;2.40;;
27383;SDS011;14851;51.166;4.760;2023-06-04T06:32:50;3.58;;;2.33;;
27383;SDS011;14851;51.166;4.760;2023-06-04T06:35:18;4.47;;;2.20;;
27383;SDS011;14851;51.166;4.760;2023-06-04T06:37:44;4.57;;;2.17;;
27383;SDS011;14851;51.166;4.760;2023-06-04T06:40:10;4.10;;;2.30;;
27383;SDS011;14851;51.166;4.760;2023-06-04T06:42:36;7.13;;;2.00;;
27383;SDS011;14851;51.166;4.760;2023-06-04T06:45:02;3.50;;;2.13;;
27383;SDS011;14851;51.166;4.760;2023-06-04T06:47:28;5.10;;;2.33;;
27383;SDS011;14851;51.166;4.760;2023-06-04T06:49:56;4.00;;;2.28;;
27383;SDS011;14851;51.166;4.760;2023-06-04T06:52:22;3.45;;;2.38;;
27383;SDS011;14851;51.166;4.760;2023-06-04T06:54:50;2.03;;;1.40;;
27383;SDS011;14851;51.166;4.760;2023-06-04T06:57:18;10.93;;;3.05;;
27383;SDS011;14851;51.166;4.760;2023-06-04T06:59:44;3.47;;;1.80;;
27383;SDS011;14851;51.166;4.760;2023-06-04T07:02:10;2.78;;;1.80;;
27383;SDS011;14851;51.166;4.760;2023-06-04T07:04:38;3.72;;;1.63;;
27383;SDS011;14851;51.166;4.760;2023-06-04T07:07:04;1.90;;;1.60;;
27383;SDS011;14851;51.166;4.760;2023-06-04T07:09:33;3.45;;;1.80;;
27383;SDS011;14851;51.166;4.760;2023-06-04T07:11:59;4.72;;;2.17;;
27383;SDS011;14851;51.166;4.760;2023-06-04T07:14:25;10.18;;;2.60;;
27383;SDS011;14851;51.166;4.760;2023-06-04T07:16:50;5.35;;;1.67;;
27383;SDS011;14851;51.166;4.760;2023-06-04T07:19:16;5.47;;;2.10;;
27383;SDS011;14851;51.166;4.760;2023-06-04T07:21:42;3.90;;;1.65;;
27383;SDS011;14851;51.166;4.760;2023-06-04T07:24:09;5.30;;;1.80;;
27383;SDS011;14851;51.166;4.760;2023-06-04T07:26:37;3.88;;;1.90;;
27383;SDS011;14851;51.166;4.760;2023-06-04T07:29:03;6.82;;;2.72;;
27383;SDS011;14851;51.166;4.760;2023-06-04T07:31:28;2.13;;;1.65;;
27383;SDS011;14851;51.166;4.760;2023-06-04T07:33:54;5.28;;;1.55;;
27383;SDS011;14851;51.166;4.760;2023-06-04T07:36:20;2.55;;;1.90;;
27383;SDS011;14851;51.166;4.760;2023-06-04T07:38:48;3.28;;;2.17;;
27383;SDS011;14851;51.166;4.760;2023-06-04T07:41:13;4.80;;;2.10;;
27383;SDS011;14851;51.166;4.760;2023-06-04T07:43:44;1.75;;;1.20;;
27383;SDS011;14851;51.166;4.760;2023-06-04T07:46:10;5.65;;;1.80;;
27383;SDS011;14851;51.166;4.760;2023-06-04T07:48:36;3.40;;;1.60;;
27383;SDS011;14851;51.166;4.760;2023-06-04T07:51:02;2.22;;;1.30;;
27383;SDS011;14851;51.166;4.760;2023-06-04T07:53:29;3.00;;;1.73;;
27383;SDS011;14851;51.166;4.760;2023-06-04T07:55:56;4.25;;;2.08;;
27383;SDS011;14851;51.166;4.760;2023-06-04T07:58:22;2.17;;;1.42;;
27383;SDS011;14851;51.166;4.760;2023-06-04T08:00:49;2.65;;;1.10;;
27383;SDS011;14851;51.166;4.760;2023-06-04T08:03:15;1.50;;;1.40;;
27383;SDS011;14851;51.166;4.760;2023-06-04T08:05:41;2.30;;;1.20;;
27383;SDS011;14851;51.166;4.760;2023-06-04T08:08:07;2.20;;;1.13;;
27383;SDS011;14851;51.166;4.760;2023-06-04T08:10:33;3.67;;;1.50;;
27383;SDS011;14851;51.166;4.760;2023-06-04T08:12:59;4.30;;;1.77;;
27383;SDS011;14851;51.166;4.760;2023-06-04T08:15:27;1.63;;;1.20;;
27383;SDS011;14851;51.166;4.760;2023-06-04T08:17:53;1.60;;;1.23;;
27383;SDS011;14851;51.166;4.760;2023-06-04T08:20:22;2.60;;;1.00;;
27383;SDS011;14851;51.166;4.760;2023-06-04T08:22:51;1.63;;;1.00;;
27383;SDS011;14851;51.166;4.760;2023-06-04T08:25:20;1.60;;;1.25;;
27383;SDS011;14851;51.166;4.760;2023-06-04T08:27:46;2.72;;;1.42;;
27383;SDS011;14851;51.166;4.760;2023-06-04T08:30:14;2.88;;;1.30;;
27383;SDS011;14851;51.166;4.760;2023-06-04T08:32:42;2.95;;;1.40;;
27383;SDS011;14851;51.166;4.760;2023-06-04T08:35:11;2.05;;;0.95;;
27383;SDS011;14851;51.166;4.760;2023-06-04T08:37:37;1.65;;;1.05;;
27383;SDS011;14851;51.166;4.760;2023-06-04T08:40:03;2.05;;;0.70;;
27383;SDS011;14851;51.166;4.760;2023-06-04T08:42:35;1.80;;;0.90;;
27383;SDS011;14851;51.166;4.760;2023-06-04T08:45:10;11.55;;;1.05;;
27383;SDS011;14851;51.166;4.760;2023-06-04T08:47:48;0.77;;;0.70;;
27383;SDS011;14851;51.166;4.760;2023-06-04T08:50:19;1.52;;;0.70;;
27383;SDS011;14851;51.166;4.760;2023-06-04T08:52:53;3.42;;;1.00;;
27383;SDS011;14851;51.166;4.760;2023-06-04T08:55:26;2.70;;;0.85;;
27383;SDS011;14851;51.166;4.760;2023-06-04T08:57:52;3.80;;;0.90;;
27383;SDS011;14851;51.166;4.760;2023-06-04T09:00:21;3.17;;;0.77;;
27383;SDS011;14851;51.166;4.760;2023-06-04T09:02:49;2.05;;;1.20;;
27383;SDS011;14851;51.166;4.760;2023-06-04T09:07:48;1.35;;;0.77;;
27383;SDS011;14851;51.166;4.760;2023-06-04T09:10:18;2.10;;;0.80;;
27383;SDS011;14851;51.166;4.760;2023-06-04T09:12:46;4.13;;;1.42;;
27383;SDS011;14851;51.166;4.760;2023-06-04T09:15:14;6.32;;;1.02;;
27383;SDS011;14851;51.166;4.760;2023-06-04T09:17:42;1.50;;;0.77;;
27383;SDS011;14851;51.166;4.760;2023-06-04T09:20:17;1.60;;;0.80;;
27383;SDS011;14851;51.166;4.760;2023-06-04T09:22:51;1.67;;;0.95;;
27383;SDS011;14851;51.166;4.760;2023-06-04T09:25:23;1.30;;;0.80;;
27383;SDS011;14851;51.166;4.760;2023-06-04T09:27:56;1.85;;;0.52;;
27383;SDS011;14851;51.166;4.760;2023-06-04T09:30:31;2.42;;;0.88;;
27383;SDS011;14851;51.166;4.760;2023-06-04T09:33:05;1.55;;;0.80;;
27383;SDS011;14851;51.166;4.760;2023-06-04T09:35:35;3.10;;;0.80;;
27383;SDS011;14851;51.166;4.760;2023-06-04T09:38:04;1.75;;;0.90;;
27383;SDS011;14851;51.166;4.760;2023-06-04T09:40:34;4.82;;;0.98;;
27383;SDS011;14851;51.166;4.760;2023-06-04T09:43:03;2.92;;;0.90;;
27383;SDS011;14851;51.166;4.760;2023-06-04T09:45:30;3.22;;;0.75;;
27383;SDS011;14851;51.166;4.760;2023-06-04T09:47:58;2.70;;;0.82;;
27383;SDS011;14851;51.166;4.760;2023-06-04T09:50:33;2.63;;;1.00;;
27383;SDS011;14851;51.166;4.760;2023-06-04T09:53:12;7.05;;;1.00;;
27383;SDS011;14851;51.166;4.760;2023-06-04T09:55:42;3.80;;;0.80;;
27383;SDS011;14851;51.166;4.760;2023-06-04T09:58:10;2.08;;;0.82;;
27383;SDS011;14851;51.166;4.760;2023-06-04T10:00:40;2.70;;;1.15;;
27383;SDS011;14851;51.166;4.760;2023-06-04T10:03:06;2.03;;;0.82;;
27383;SDS011;14851;51.166;4.760;2023-06-04T10:05:37;2.33;;;0.80;;
27383;SDS011;14851;51.166;4.760;2023-06-04T10:08:03;1.73;;;0.88;;
27383;SDS011;14851;51.166;4.760;2023-06-04T10:10:34;5.33;;;0.90;;
27383;SDS011;14851;51.166;4.760;2023-06-04T10:13:07;5.72;;;0.90;;
27383;SDS011;14851;51.166;4.760;2023-06-04T10:15:42;0.82;;;0.60;;
27383;SDS011;14851;51.166;4.760;2023-06-04T10:18:08;1.73;;;0.70;;
27383;SDS011;14851;51.166;4.760;2023-06-04T10:20:38;2.00;;;0.60;;
27383;SDS011;14851;51.166;4.760;2023-06-04T10:23:05;1.23;;;0.75;;
27383;SDS011;14851;51.166;4.760;2023-06-04T10:25:34;2.53;;;0.70;;
27383;SDS011;14851;51.166;4.760;2023-06-04T10:28:03;1.92;;;0.77;;
27383;SDS011;14851;51.166;4.760;2023-06-04T10:30:29;1.98;;;1.00;;
27383;SDS011;14851;51.166;4.760;2023-06-04T10:33:01;3.05;;;0.80;;
27383;SDS011;14851;51.166;4.760;2023-06-04T10:35:32;2.33;;;0.95;;
27383;SDS011;14851;51.166;4.760;2023-06-04T10:38:10;2.13;;;0.90;;
27383;SDS011;14851;51.166;4.760;2023-06-04T10:40:39;3.85;;;1.00;;
27383;SDS011;14851;51.166;4.760;2023-06-04T10:43:09;1.55;;;0.60;;
27383;SDS011;14851;51.166;4.760;2023-06-04T10:45:38;1.27;;;0.95;;
27383;SDS011;14851;51.166;4.760;2023-06-04T10:48:05;1.25;;;0.70;;
27383;SDS011;14851;51.166;4.760;2023-06-04T10:50:33;1.35;;;0.80;;
27383;SDS011;14851;51.166;4.760;2023-06-04T10:53:00;2.95;;;0.98;;
27383;SDS011;14851;51.166;4.760;2023-06-04T10:55:42;1.10;;;0.80;;
27383;SDS011;14851;51.166;4.760;2023-06-04T10:58:12;2.58;;;0.88;;
27383;SDS011;14851;51.166;4.760;2023-06-04T11:00:38;4.15;;;0.80;;
27383;SDS011;14851;51.166;4.760;2023-06-04T11:03:09;2.83;;;0.75;;
27383;SDS011;14851;51.166;4.760;2023-06-04T11:08:03;4.43;;;0.80;;
27383;SDS011;14851;51.166;4.760;2023-06-04T11:10:37;1.15;;;0.70;;
27383;SDS011;14851;51.166;4.760;2023-06-04T11:13:07;2.45;;;1.20;;
27383;SDS011;14851;51.166;4.760;2023-06-04T11:15:43;1.30;;;0.70;;
27383;SDS011;14851;51.166;4.760;2023-06-04T11:18:14;3.35;;;1.10;;
27383;SDS011;14851;51.166;4.760;2023-06-04T11:20:41;2.97;;;0.90;;
27383;SDS011;14851;51.166;4.760;2023-06-04T11:23:11;2.10;;;0.90;;
27383;SDS011;14851;51.166;4.760;2023-06-04T11:25:38;2.92;;;0.80;;
27383;SDS011;14851;51.166;4.760;2023-06-04T11:28:04;2.45;;;0.80;;
27383;SDS011;14851;51.166;4.760;2023-06-04T11:30:30;4.93;;;1.08;;
27383;SDS011;14851;51.166;4.760;2023-06-04T11:33:02;1.73;;;0.90;;
27383;SDS011;14851;51.166;4.760;2023-06-04T11:35:30;5.50;;;1.17;;
27383;SDS011;14851;51.166;4.760;2023-06-04T11:37:57;1.08;;;0.80;;
27383;SDS011;14851;51.166;4.760;2023-06-04T11:40:23;2.83;;;1.10;;
27383;SDS011;14851;51.166;4.760;2023-06-04T11:42:52;3.40;;;1.20;;
27383;SDS011;14851;51.166;4.760;2023-06-04T11:45:19;3.50;;;1.00;;
27383;SDS011;14851;51.166;4.760;2023-06-04T11:47:50;1.60;;;0.70;;
27383;SDS011;14851;51.166;4.760;2023-06-04T11:50:26;1.50;;;0.70;;
27383;SDS011;14851;51.166;4.760;2023-06-04T11:52:53;1.90;;;0.90;;
27383;SDS011;14851;51.166;4.760;2023-06-04T11:55:19;2.17;;;0.82;;
27383;SDS011;14851;51.166;4.760;2023-06-04T11:57:47;1.77;;;0.95;;
27383;SDS011;14851;51.166;4.760;2023-06-04T12:00:14;2.45;;;0.73;;
27383;SDS011;14851;51.166;4.760;2023-06-04T12:02:52;2.95;;;1.05;;
27383;SDS011;14851;51.166;4.760;2023-06-04T12:05:20;2.83;;;1.20;;
27383;SDS011;14851;51.166;4.760;2023-06-04T12:07:50;4.40;;;1.00;;
27383;SDS011;14851;51.166;4.760;2023-06-04T12:10:17;1.58;;;0.98;;
27383;SDS011;14851;51.166;4.760;2023-06-04T12:12:44;1.30;;;0.82;;
27383;SDS011;14851;51.166;4.760;2023-06-04T12:15:10;1.98;;;0.90;;
27383;SDS011;14851;51.166;4.760;2023-06-04T12:17:37;1.05;;;0.80;;
27383;SDS011;14851;51.166;4.760;2023-06-04T12:20:35;2.60;;;0.93;;
27383;SDS011;14851;51.166;4.760;2023-06-04T12:23:03;3.25;;;0.70;;
27383;SDS011;14851;51.166;4.760;2023-06-04T12:25:33;1.02;;;0.80;;
27383;SDS011;14851;51.166;4.760;2023-06-04T12:28:02;2.95;;;0.75;;
27383;SDS011;14851;51.166;4.760;2023-06-04T12:30:39;0.65;;;0.50;;
27383;SDS011;14851;51.166;4.760;2023-06-04T12:33:05;3.90;;;0.95;;
27383;SDS011;14851;51.166;4.760;2023-06-04T12:35:31;2.83;;;1.00;;
27383;SDS011;14851;51.166;4.760;2023-06-04T12:37:58;2.92;;;0.98;;
27383;SDS011;14851;51.166;4.760;2023-06-04T12:40:24;0.95;;;0.65;;
27383;SDS011;14851;51.166;4.760;2023-06-04T12:42:50;2.97;;;0.82;;
27383;SDS011;14851;51.166;4.760;2023-06-04T12:45:18;2.15;;;0.93;;
27383;SDS011;14851;51.166;4.760;2023-06-04T12:47:47;2.83;;;0.90;;
27383;SDS011;14851;51.166;4.760;2023-06-04T12:50:13;4.45;;;1.10;;
27383;SDS011;14851;51.166;4.760;2023-06-04T12:52:43;2.15;;;0.88;;
27383;SDS011;14851;51.166;4.760;2023-06-04T12:55:09;0.63;;;0.55;;
27383;SDS011;14851;51.166;4.760;2023-06-04T12:57:35;3.10;;;0.90;;
27383;SDS011;14851;51.166;4.760;2023-06-04T13:00:03;2.15;;;0.90;;
27383;SDS011;14851;51.166;4.760;2023-06-04T13:02:32;3.72;;;1.00;;
27383;SDS011;14851;51.166;4.760;2023-06-04T13:05:00;3.90;;;1.00;;
27383;SDS011;14851;51.166;4.760;2023-06-04T13:07:28;2.38;;;0.90;;
27383;SDS011;14851;51.166;4.760;2023-06-04T13:09:54;1.38;;;1.00;;
27383;SDS011;14851;51.166;4.760;2023-06-04T13:12:22;2.05;;;1.05;;
27383;SDS011;14851;51.166;4.760;2023-06-04T13:14:51;0.80;;;0.70;;
27383;SDS011;14851;51.166;4.760;2023-06-04T13:17:16;1.30;;;0.80;;
27383;SDS011;14851;51.166;4.760;2023-06-04T13:19:42;1.52;;;0.93;;
27383;SDS011;14851;51.166;4.760;2023-06-04T13:22:10;1.80;;;0.82;;
27383;SDS011;14851;51.166;4.760;2023-06-04T13:24:36;3.22;;;1.17;;
27383;SDS011;14851;51.166;4.760;2023-06-04T13:27:02;3.55;;;1.30;;
27383;SDS011;14851;51.166;4.760;2023-06-04T13:29:31;2.00;;;1.10;;
27383;SDS011;14851;51.166;4.760;2023-06-04T13:31:58;1.88;;;0.60;;
27383;SDS011;14851;51.166;4.760;2023-06-04T13:34:27;1.60;;;1.00;;
27383;SDS011;14851;51.166;4.760;2023-06-04T13:36:55;0.75;;;0.50;;
27383;SDS011;14851;51.166;4.760;2023-06-04T13:39:21;1.73;;;0.90;;
27383;SDS011;14851;51.166;4.760;2023-06-04T13:41:49;1.38;;;0.82;;
27383;SDS011;14851;51.166;4.760;2023-06-04T13:44:21;3.75;;;1.10;;
27383;SDS011;14851;51.166;4.760;2023-06-04T13:46:51;2.90;;;1.33;;
27383;SDS011;14851;51.166;4.760;2023-06-04T13:49:17;1.63;;;0.68;;
27383;SDS011;14851;51.166;4.760;2023-06-04T13:51:43;1.63;;;1.40;;
27383;SDS011;14851;51.166;4.760;2023-06-04T13:54:09;3.22;;;0.77;;
27383;SDS011;14851;51.166;4.760;2023-06-04T13:56:35;1.20;;;0.88;;
27383;SDS011;14851;51.166;4.760;2023-06-04T13:59:03;1.05;;;0.70;;
27383;SDS011;14851;51.166;4.760;2023-06-04T14:01:28;2.40;;;0.90;;
27383;SDS011;14851;51.166;4.760;2023-06-04T14:03:55;0.70;;;0.47;;
27383;SDS011;14851;51.166;4.760;2023-06-04T14:06:23;2.53;;;1.10;;
27383;SDS011;14851;51.166;4.760;2023-06-04T14:08:49;3.28;;;0.80;;
27383;SDS011;14851;51.166;4.760;2023-06-04T14:11:15;4.90;;;1.40;;
27383;SDS011;14851;51.166;4.760;2023-06-04T14:13:41;2.90;;;1.13;;
27383;SDS011;14851;51.166;4.760;2023-06-04T14:16:10;1.17;;;0.77;;
27383;SDS011;14851;51.166;4.760;2023-06-04T14:18:38;1.13;;;0.90;;
27383;SDS011;14851;51.166;4.760;2023-06-04T14:21:06;1.65;;;0.70;;
27383;SDS011;14851;51.166;4.760;2023-06-04T14:23:33;2.45;;;0.70;;
27383;SDS011;14851;51.166;4.760;2023-06-04T14:26:02;3.90;;;0.90;;
27383;SDS011;14851;51.166;4.760;2023-06-04T14:28:27;1.83;;;0.70;;
27383;SDS011;14851;51.166;4.760;2023-06-04T14:30:53;2.65;;;1.00;;
27383;SDS011;14851;51.166;4.760;2023-06-04T14:33:19;2.22;;;0.73;;
27383;SDS011;14851;51.166;4.760;2023-06-04T14:35:45;3.38;;;1.10;;
27383;SDS011;14851;51.166;4.760;2023-06-04T14:38:12;1.02;;;0.80;;
27383;SDS011;14851;51.166;4.760;2023-06-04T14:40:39;2.40;;;1.20;;
27383;SDS011;14851;51.166;4.760;2023-06-04T14:43:07;1.27;;;0.90;;
27383;SDS011;14851;51.166;4.760;2023-06-04T14:45:32;1.63;;;1.20;;
27383;SDS011;14851;51.166;4.760;2023-06-04T14:47:58;1.50;;;0.73;;
27383;SDS011;14851;51.166;4.760;2023-06-04T14:50:24;3.35;;;1.20;;
27383;SDS011;14851;51.166;4.760;2023-06-04T14:52:50;1.70;;;0.90;;
27383;SDS011;14851;51.166;4.760;2023-06-04T14:55:16;2.08;;;1.20;;
27383;SDS011;14851;51.166;4.760;2023-06-04T14:57:42;1.95;;;0.70;;
27383;SDS011;14851;51.166;4.760;2023-06-04T15:00:07;1.30;;;0.73;;
27383;SDS011;14851;51.166;4.760;2023-06-04T15:02:34;3.00;;;1.38;;
27383;SDS011;14851;51.166;4.760;2023-06-04T15:04:59;1.92;;;1.20;;
27383;SDS011;14851;51.166;4.760;2023-06-04T15:07:25;2.03;;;1.00;;
27383;SDS011;14851;51.166;4.760;2023-06-04T15:09:51;2.58;;;1.20;;
27383;SDS011;14851;51.166;4.760;2023-06-04T15:12:19;3.50;;;1.35;;
27383;SDS011;14851;51.166;4.760;2023-06-04T15:14:46;5.38;;;1.30;;
27383;SDS011;14851;51.166;4.760;2023-06-04T15:17:11;3.60;;;1.10;;